Time;durP1;ratioP1;P1;durP2;ratioP2;P2;SDS_P1;SDS_P2;PMS_P1;PMS_P2;Temp;Humidity;BMP_temperature;BMP_pressure;BME280_temperature;BME280_humidity;BME280_pressure;Samples;Min_cycle;Max_cycle;Signal;HPM_P1;HPM_P2
2021/07/25 00:01:12;;;;;;;;;;;26.20;55.00;;;;;;5089272;28;19994;-63
2021/07/25 00:03:37;;;;;;;;;;;26.10;54.90;;;;;;5069789;28;20350;-66
2021/07/25 00:06:03;;;;;;;;;;;26.10;54.90;;;;;;5084399;28;19915;-64
2021/07/25 00:08:28;;;;;;;;;;;26.10;54.90;;;;;;5087042;28;19916;-64
2021/07/25 00:10:56;;;;;;;;;;;26.10;54.90;;;;;;5089245;28;19912;-64
2021/07/25 00:13:21;;;;;;;;;;;26.10;54.90;;;;;;5090478;28;19936;-63
2021/07/25 00:15:47;;;;;;;;;;;26.10;54.90;;;;;;5089193;28;20081;-67
2021/07/25 00:18:12;;;;;;;;;;;26.10;54.90;;;;;;5088904;28;19918;-64
2021/07/25 00:20:38;;;;;;;;;;;26.10;54.90;;;;;;5087992;28;19923;-67
2021/07/25 00:23:03;;;;;;;;;;;26.10;54.90;;;;;;5079279;28;19918;-63
2021/07/25 00:25:29;;;;;;;;;;;26.10;54.90;;;;;;5086960;28;19912;-62
2021/07/25 00:27:56;;;;;;;;;;;26.10;54.90;;;;;;5082033;28;19908;-65
2021/07/25 00:30:25;;;;;;;;;;;26.10;54.90;;;;;;5081627;28;21056;-65
2021/07/25 00:32:50;;;;;;;;;;;26.10;54.90;;;;;;5070343;28;19933;-63
2021/07/25 00:35:19;;;;;;;;;;;26.10;54.90;;;;;;5088894;28;19920;-65
2021/07/25 00:37:47;;;;;;;;;;;26.10;54.90;;;;;;5089235;28;19912;-64
2021/07/25 00:40:25;;;;;;;;;;;26.10;54.90;;;;;;5088706;28;19912;-64
2021/07/25 00:42:50;;;;;;;;;;;26.10;54.90;;;;;;5090063;28;19915;-65
2021/07/25 00:45:16;;;;;;;;;;;26.10;54.90;;;;;;5088555;28;19920;-62
2021/07/25 00:47:41;;;;;;;;;;;26.10;54.90;;;;;;5089951;28;19965;-63
2021/07/25 00:50:07;;;;;;;;;;;26.00;54.80;;;;;;5088415;28;19943;-64
2021/07/25 00:52:33;;;;;;;;;;;26.00;54.80;;;;;;5089274;28;19916;-65
2021/07/25 00:54:59;;;;;;;;;;;26.00;54.80;;;;;;5067779;28;19919;-64
2021/07/25 00:57:25;;;;;;;;;;;26.00;54.80;;;;;;5087942;28;20265;-63
2021/07/25 00:59:50;;;;;;;;;;;26.00;54.80;;;;;;5088665;28;19912;-65
2021/07/25 01:02:16;;;;;;;;;;;26.00;54.90;;;;;;5088201;28;20370;-63
2021/07/25 01:04:44;;;;;;;;;;;26.00;54.80;;;;;;5089606;28;19918;-62
2021/07/25 01:07:14;;;;;;;;;;;26.00;54.90;;;;;;5088877;28;19928;-69
2021/07/25 01:09:39;;;;;;;;;;;26.00;54.80;;;;;;5088956;28;20544;-65
2021/07/25 01:12:06;;;;;;;;;;;26.00;54.80;;;;;;5088503;28;19996;-67
2021/07/25 01:14:37;;;;;;;;;;;26.00;54.90;;;;;;5088724;28;19915;-65
2021/07/25 01:17:23;;;;;;;;;;;26.00;55.40;;;;;;5070352;28;19964;-65
2021/07/25 01:19:49;;;;;;;;;;;26.00;54.90;;;;;;5083062;28;19970;-64
2021/07/25 01:22:15;;;;;;;;;;;26.00;54.90;;;;;;5086870;28;19939;-65
2021/07/25 01:24:41;;;;;;;;;;;26.00;54.80;;;;;;5088624;28;19946;-62
2021/07/25 01:27:07;;;;;;;;;;;26.00;54.80;;;;;;5083490;28;19916;-65
2021/07/25 01:29:32;;;;;;;;;;;26.00;54.80;;;;;;5088088;28;19957;-68
2021/07/25 01:31:58;;;;;;;;;;;26.00;54.90;;;;;;5081695;28;19916;-66
2021/07/25 01:34:24;;;;;;;;;;;26.00;54.90;;;;;;5086770;28;19962;-63
2021/07/25 01:36:51;;;;;;;;;;;25.90;54.80;;;;;;5088203;28;20263;-62
2021/07/25 01:39:17;;;;;;;;;;;26.00;54.80;;;;;;5088493;28;19916;-64
2021/07/25 01:41:43;;;;;;;;;;;26.00;54.80;;;;;;5088092;28;19907;-68
2021/07/25 01:44:09;;;;;;;;;;;26.00;54.80;;;;;;5081855;28;19908;-63
2021/07/25 01:46:36;;;;;;;;;;;25.90;54.80;;;;;;5087873;28;19976;-62
2021/07/25 01:49:01;;;;;;;;;;;26.00;54.80;;;;;;5083526;28;19992;-66
2021/07/25 01:51:27;;;;;;;;;;;26.00;54.80;;;;;;5086857;28;20023;-63
2021/07/25 01:53:52;;;;;;;;;;;25.90;54.80;;;;;;5087550;28;19965;-64
2021/07/25 01:56:18;;;;;;;;;;;25.90;54.80;;;;;;5069476;28;19916;-65
2021/07/25 01:58:43;;;;;;;;;;;25.90;54.80;;;;;;5087942;28;19912;-65
2021/07/25 02:01:09;;;;;;;;;;;25.90;54.80;;;;;;5076518;28;19916;-62
2021/07/25 02:03:35;;;;;;;;;;;26.00;54.80;;;;;;5086959;28;19951;-63
2021/07/25 02:06:02;;;;;;;;;;;25.90;54.80;;;;;;5084770;28;19912;-64
2021/07/25 02:08:27;;;;;;;;;;;25.90;54.80;;;;;;5087439;28;20687;-63
2021/07/25 02:10:52;;;;;;;;;;;25.90;54.80;;;;;;5085508;28;19912;-64
2021/07/25 02:13:20;;;;;;;;;;;25.90;54.80;;;;;;5085334;28;19908;-65
2021/07/25 02:15:45;;;;;;;;;;;25.90;54.80;;;;;;5088067;28;20361;-62
2021/07/25 02:18:11;;;;;;;;;;;25.90;54.80;;;;;;5069319;28;19912;-65
2021/07/25 02:20:37;;;;;;;;;;;25.90;54.80;;;;;;5085336;28;20249;-63
2021/07/25 02:23:03;;;;;;;;;;;25.90;54.80;;;;;;5082153;28;19912;-67
2021/07/25 02:25:28;;;;;;;;;;;25.90;54.80;;;;;;5089928;28;20282;-64
2021/07/25 02:27:54;;;;;;;;;;;25.90;54.80;;;;;;5086180;28;20311;-63
2021/07/25 02:30:19;;;;;;;;;;;25.90;54.80;;;;;;5087325;28;19919;-63
2021/07/25 02:32:45;;;;;;;;;;;25.90;54.80;;;;;;5087331;28;19904;-63
2021/07/25 02:35:10;;;;;;;;;;;25.90;54.80;;;;;;5077780;28;20002;-63
2021/07/25 02:37:36;;;;;;;;;;;25.90;54.80;;;;;;5085939;28;19919;-66
2021/07/25 02:40:02;;;;;;;;;;;25.80;54.70;;;;;;5086175;28;19994;-63
2021/07/25 02:42:28;;;;;;;;;;;25.80;54.70;;;;;;5084550;28;19918;-65
2021/07/25 02:44:53;;;;;;;;;;;25.90;54.70;;;;;;5085680;28;20263;-63
2021/07/25 02:47:19;;;;;;;;;;;25.80;54.70;;;;;;5087844;28;19908;-63
2021/07/25 02:49:44;;;;;;;;;;;25.80;54.70;;;;;;5086806;28;19963;-67
2021/07/25 02:52:10;;;;;;;;;;;25.90;54.70;;;;;;5087205;28;20200;-66
2021/07/25 02:54:35;;;;;;;;;;;25.80;54.70;;;;;;5083922;28;19912;-63
2021/07/25 02:57:01;;;;;;;;;;;25.80;54.70;;;;;;5087986;28;19908;-65
2021/07/25 02:59:28;;;;;;;;;;;25.80;54.70;;;;;;5086234;28;19912;-66
2021/07/25 03:01:54;;;;;;;;;;;25.80;54.70;;;;;;5086234;28;19920;-63
2021/07/25 03:04:19;;;;;;;;;;;25.80;54.70;;;;;;5086700;28;19919;-66
2021/07/25 03:06:45;;;;;;;;;;;25.80;54.70;;;;;;5086485;28;19931;-64
2021/07/25 03:09:10;;;;;;;;;;;25.80;54.70;;;;;;5085334;28;19951;-62
2021/07/25 03:11:36;;;;;;;;;;;25.80;54.70;;;;;;5083837;28;19912;-64
2021/07/25 03:14:01;;;;;;;;;;;25.80;54.70;;;;;;5084054;28;19962;-63
2021/07/25 03:16:27;;;;;;;;;;;25.80;54.70;;;;;;5084849;28;20038;-67
2021/07/25 03:18:52;;;;;;;;;;;25.80;54.70;;;;;;5085475;28;19912;-65
2021/07/25 03:21:18;;;;;;;;;;;25.80;54.70;;;;;;5087042;28;19912;-64
2021/07/25 03:23:43;;;;;;;;;;;25.80;54.70;;;;;;5066463;28;20247;-64
2021/07/25 03:26:09;;;;;;;;;;;25.80;54.70;;;;;;5086910;28;19919;-64
2021/07/25 03:28:35;;;;;;;;;;;25.80;54.70;;;;;;5087077;28;19912;-66
2021/07/25 03:31:01;;;;;;;;;;;25.80;54.70;;;;;;5087054;28;19923;-63
2021/07/25 03:33:26;;;;;;;;;;;25.80;54.70;;;;;;5060831;28;19912;-63
2021/07/25 03:35:52;;;;;;;;;;;25.80;54.70;;;;;;5081192;28;19919;-63
2021/07/25 03:38:18;;;;;;;;;;;25.70;54.60;;;;;;5087082;28;19996;-63
2021/07/25 03:40:44;;;;;;;;;;;25.70;54.60;;;;;;5087723;28;20377;-65
2021/07/25 03:43:10;;;;;;;;;;;25.70;54.60;;;;;;5087194;28;19989;-67
2021/07/25 03:45:36;;;;;;;;;;;25.70;54.60;;;;;;5067558;28;19991;-65
2021/07/25 03:48:02;;;;;;;;;;;25.80;54.70;;;;;;5083135;28;20527;-63
2021/07/25 03:50:27;;;;;;;;;;;25.70;54.60;;;;;;5080399;28;19987;-66
2021/07/25 03:52:53;;;;;;;;;;;25.70;54.60;;;;;;5085377;28;20001;-67
2021/07/25 03:55:22;;;;;;;;;;;25.80;54.70;;;;;;5077258;28;20022;-63
2021/07/25 03:57:48;;;;;;;;;;;25.70;54.60;;;;;;5081675;28;19975;-63
2021/07/25 04:00:14;;;;;;;;;;;25.70;54.70;;;;;;5084548;28;20345;-68
2021/07/25 04:02:39;;;;;;;;;;;25.70;54.60;;;;;;5087078;28;20006;-63
2021/07/25 04:05:05;;;;;;;;;;;25.70;54.60;;;;;;5086786;28;19947;-65
2021/07/25 04:07:30;;;;;;;;;;;25.70;54.60;;;;;;5081474;28;19994;-66
2021/07/25 04:09:56;;;;;;;;;;;25.70;54.60;;;;;;5072120;28;19912;-64
2021/07/25 04:12:22;;;;;;;;;;;25.70;54.70;;;;;;5087307;28;19908;-63
2021/07/25 04:14:47;;;;;;;;;;;25.70;54.70;;;;;;5090095;28;19908;-63
2021/07/25 04:17:13;;;;;;;;;;;25.70;54.70;;;;;;5089625;28;20286;-65
2021/07/25 04:19:38;;;;;;;;;;;25.70;54.70;;;;;;5089171;28;20338;-65
2021/07/25 04:22:04;;;;;;;;;;;25.70;55.20;;;;;;5090058;28;19908;-65
2021/07/25 04:24:29;;;;;;;;;;;25.70;54.60;;;;;;5089434;28;20267;-63
2021/07/25 04:26:55;;;;;;;;;;;25.70;54.60;;;;;;5089742;28;19958;-64
2021/07/25 04:29:21;;;;;;;;;;;25.70;54.60;;;;;;5089441;28;19915;-64
2021/07/25 04:31:46;;;;;;;;;;;25.70;54.60;;;;;;5086621;28;19916;-64
2021/07/25 04:34:12;;;;;;;;;;;25.70;54.70;;;;;;5088538;28;19915;-65
2021/07/25 04:36:39;;;;;;;;;;;25.70;54.70;;;;;;5076165;28;20274;-66
2021/07/25 04:39:07;;;;;;;;;;;25.70;54.70;;;;;;5070342;28;19915;-63
2021/07/25 04:42:01;;;;;;;;;;;25.70;54.70;;;;;;5089529;28;20334;-64
2021/07/25 04:44:30;;;;;;;;;;;25.70;54.70;;;;;;5061647;28;19984;-66
2021/07/25 04:47:00;;;;;;;;;;;25.70;54.70;;;;;;5089708;28;19912;-66
2021/07/25 04:49:32;;;;;;;;;;;25.70;54.70;;;;;;5087694;28;19994;-66
2021/07/25 04:51:58;;;;;;;;;;;25.70;54.70;;;;;;5089399;28;20010;-65
2021/07/25 04:54:25;;;;;;;;;;;25.70;54.70;;;;;;5068165;28;20284;-64
2021/07/25 04:59:24;;;;;;;;;;;25.70;54.70;;;;;;5088622;28;19912;-66
2021/07/25 05:01:50;;;;;;;;;;;25.70;54.70;;;;;;5080609;28;19943;-63
2021/07/25 05:04:20;;;;;;;;;;;25.70;54.70;;;;;;5089068;28;19946;-63
2021/07/25 05:06:45;;;;;;;;;;;25.70;54.70;;;;;;5088542;28;20311;-63
2021/07/25 05:09:11;;;;;;;;;;;25.70;54.70;;;;;;5086062;28;19915;-63
2021/07/25 05:11:39;;;;;;;;;;;25.70;54.70;;;;;;5089990;28;19912;-63
2021/07/25 05:14:07;;;;;;;;;;;25.70;54.70;;;;;;5078247;28;20057;-62
2021/07/25 05:16:39;;;;;;;;;;;25.60;54.60;;;;;;5088541;28;19916;-62
2021/07/25 05:19:13;;;;;;;;;;;25.70;54.70;;;;;;5088022;28;19923;-62
2021/07/25 05:21:42;;;;;;;;;;;25.60;54.60;;;;;;5087380;28;19915;-63
2021/07/25 05:24:08;;;;;;;;;;;25.60;54.60;;;;;;5083180;28;19955;-67
2021/07/25 05:26:35;;;;;;;;;;;25.60;54.60;;;;;;5081225;28;20362;-64
2021/07/25 05:29:01;;;;;;;;;;;25.60;54.60;;;;;;5084159;28;20026;-63
2021/07/25 05:31:29;;;;;;;;;;;25.60;54.60;;;;;;5079841;28;20027;-62
2021/07/25 05:33:54;;;;;;;;;;;25.60;54.70;;;;;;5088335;28;19916;-62
2021/07/25 05:36:20;;;;;;;;;;;25.60;54.60;;;;;;5088727;28;19919;-63
2021/07/25 05:38:45;;;;;;;;;;;25.60;54.60;;;;;;5087815;28;19914;-64
2021/07/25 05:41:11;;;;;;;;;;;25.60;54.60;;;;;;5082280;28;20351;-66
2021/07/25 05:43:36;;;;;;;;;;;25.60;54.60;;;;;;5087446;28;19916;-65
2021/07/25 05:46:02;;;;;;;;;;;25.60;54.60;;;;;;5081061;28;20007;-65
2021/07/25 05:48:27;;;;;;;;;;;25.60;54.60;;;;;;5088858;28;20406;-64
2021/07/25 05:50:53;;;;;;;;;;;25.60;54.60;;;;;;5083582;28;19922;-63
2021/07/25 05:53:18;;;;;;;;;;;25.60;54.60;;;;;;5082768;28;19961;-64
2021/07/25 05:55:44;;;;;;;;;;;25.60;54.70;;;;;;5086424;28;20791;-65
2021/07/25 05:58:09;;;;;;;;;;;25.60;54.70;;;;;;5087648;28;20921;-63
2021/07/25 06:00:35;;;;;;;;;;;25.60;54.70;;;;;;5078523;28;19935;-63
2021/07/25 06:03:01;;;;;;;;;;;25.60;54.70;;;;;;5074354;28;20002;-63
2021/07/25 06:05:28;;;;;;;;;;;25.60;54.70;;;;;;5069211;28;19912;-69
2021/07/25 06:07:53;;;;;;;;;;;25.60;54.70;;;;;;5085645;28;20350;-67
2021/07/25 06:10:20;;;;;;;;;;;25.50;54.60;;;;;;5080633;28;19946;-63
2021/07/25 06:12:46;;;;;;;;;;;25.60;54.70;;;;;;5085589;28;20015;-64
2021/07/25 06:15:12;;;;;;;;;;;25.60;54.70;;;;;;5084367;28;20011;-67
2021/07/25 06:17:37;;;;;;;;;;;25.50;54.60;;;;;;5082081;28;19999;-65
2021/07/25 06:20:03;;;;;;;;;;;25.60;54.70;;;;;;5074308;28;19992;-67
2021/07/25 06:22:55;;;;;;;;;;;25.60;54.70;;;;;;5084850;28;19959;-64
2021/07/25 06:25:26;;;;;;;;;;;25.50;54.60;;;;;;5078132;28;19983;-63
2021/07/25 06:27:53;;;;;;;;;;;25.60;54.70;;;;;;5077036;28;19921;-68
2021/07/25 06:30:19;;;;;;;;;;;25.60;54.70;;;;;;5084207;28;20628;-65
2021/07/25 06:32:57;;;;;;;;;;;25.50;54.60;;;;;;5085499;28;19914;-63
2021/07/25 06:35:23;;;;;;;;;;;25.50;54.60;;;;;;5081071;28;19920;-65
2021/07/25 06:37:48;;;;;;;;;;;25.60;54.70;;;;;;5082799;28;20315;-64
2021/07/25 06:40:15;;;;;;;;;;;25.50;54.70;;;;;;5074748;28;19935;-64
2021/07/25 06:42:41;;;;;;;;;;;25.50;54.60;;;;;;5055318;28;20006;-62
2021/07/25 06:45:07;;;;;;;;;;;25.50;54.70;;;;;;5083748;28;19908;-63
2021/07/25 06:47:32;;;;;;;;;;;25.50;54.70;;;;;;5084044;28;19908;-66
2021/07/25 06:49:57;;;;;;;;;;;25.50;54.70;;;;;;5079539;28;19912;-66
2021/07/25 06:52:23;;;;;;;;;;;25.50;54.70;;;;;;5077037;28;19915;-65
2021/07/25 06:54:48;;;;;;;;;;;25.50;54.70;;;;;;5081198;28;19912;-65
2021/07/25 06:57:14;;;;;;;;;;;25.50;54.70;;;;;;5083756;28;19927;-65
2021/07/25 06:59:39;;;;;;;;;;;25.50;54.70;;;;;;5081979;28;20547;-64
2021/07/25 07:02:05;;;;;;;;;;;25.50;54.70;;;;;;5077520;28;20148;-64
2021/07/25 07:04:30;;;;;;;;;;;25.50;54.80;;;;;;5081903;28;20424;-65
2021/07/25 07:06:56;;;;;;;;;;;25.50;54.70;;;;;;5062030;28;20320;-64
2021/07/25 07:09:21;;;;;;;;;;;25.50;54.70;;;;;;5081496;28;19922;-65
2021/07/25 07:11:47;;;;;;;;;;;25.50;54.80;;;;;;5080315;28;20649;-64
2021/07/25 07:14:12;;;;;;;;;;;25.50;54.70;;;;;;5084412;28;19919;-64
2021/07/25 07:16:38;;;;;;;;;;;25.50;54.70;;;;;;5083497;28;20361;-64
2021/07/25 07:19:03;;;;;;;;;;;25.50;54.70;;;;;;5083961;28;19912;-64
2021/07/25 07:21:29;;;;;;;;;;;25.50;54.70;;;;;;5073944;28;19965;-65
2021/07/25 07:23:55;;;;;;;;;;;25.50;54.70;;;;;;5078139;28;20349;-65
2021/07/25 07:26:21;;;;;;;;;;;25.50;54.80;;;;;;5074859;28;19919;-64
2021/07/25 07:28:47;;;;;;;;;;;25.50;54.80;;;;;;5080440;28;20350;-68
2021/07/25 07:31:12;;;;;;;;;;;25.50;54.80;;;;;;5081782;28;19916;-64
2021/07/25 07:33:38;;;;;;;;;;;25.50;54.80;;;;;;5067233;28;19908;-64
2021/07/25 07:36:03;;;;;;;;;;;25.50;54.80;;;;;;5081337;28;20016;-64
2021/07/25 07:38:29;;;;;;;;;;;25.40;54.80;;;;;;5082608;28;20003;-65
2021/07/25 07:40:54;;;;;;;;;;;25.50;54.80;;;;;;5083614;28;19908;-62
2021/07/25 07:43:22;;;;;;;;;;;25.50;54.80;;;;;;5077020;28;19911;-64
2021/07/25 07:45:48;;;;;;;;;;;25.50;54.90;;;;;;5082416;28;19919;-67
2021/07/25 07:48:13;;;;;;;;;;;25.50;54.90;;;;;;5067423;28;19912;-64
2021/07/25 07:50:40;;;;;;;;;;;25.50;54.90;;;;;;5060355;28;19933;-62
2021/07/25 07:53:06;;;;;;;;;;;25.40;54.80;;;;;;5079875;28;19919;-64
2021/07/25 07:55:31;;;;;;;;;;;25.40;54.80;;;;;;5082056;28;19916;-64
2021/07/25 07:57:57;;;;;;;;;;;25.50;54.90;;;;;;5083280;28;19940;-66
2021/07/25 08:00:23;;;;;;;;;;;25.50;54.90;;;;;;5077576;28;20374;-62
2021/07/25 08:02:48;;;;;;;;;;;25.50;54.90;;;;;;5087146;28;20548;-65
2021/07/25 08:05:14;;;;;;;;;;;25.40;54.80;;;;;;5086378;28;21651;-65
2021/07/25 08:07:39;;;;;;;;;;;25.50;54.90;;;;;;5088591;28;19923;-63
2021/07/25 08:10:05;;;;;;;;;;;25.40;54.80;;;;;;5087965;28;20140;-65
2021/07/25 08:12:31;;;;;;;;;;;25.50;54.90;;;;;;5087224;28;19999;-64
2021/07/25 08:14:56;;;;;;;;;;;25.40;54.80;;;;;;5087060;28;19998;-66
2021/07/25 08:17:23;;;;;;;;;;;25.40;54.90;;;;;;5081818;28;19931;-63
2021/07/25 08:19:48;;;;;;;;;;;25.50;54.90;;;;;;5066307;28;20540;-68
2021/07/25 08:22:14;;;;;;;;;;;25.50;55.00;;;;;;5081089;28;19912;-66
2021/07/25 08:24:40;;;;;;;;;;;25.50;55.00;;;;;;5081834;28;19957;-64
2021/07/25 08:27:09;;;;;;;;;;;25.40;54.90;;;;;;5082502;28;19911;-64
2021/07/25 08:29:35;;;;;;;;;;;25.40;54.90;;;;;;5084501;28;20010;-63
2021/07/25 08:32:01;;;;;;;;;;;25.50;55.00;;;;;;5086958;28;20294;-67
2021/07/25 08:34:26;;;;;;;;;;;25.40;55.00;;;;;;5086961;28;20091;-62
2021/07/25 08:36:52;;;;;;;;;;;25.50;55.00;;;;;;5084615;28;20524;-68
2021/07/25 08:39:18;;;;;;;;;;;25.50;55.10;;;;;;5087337;28;20741;-68
2021/07/25 08:42:02;;;;;;;;;;;25.50;55.10;;;;;;5086615;28;20664;-64
2021/07/25 08:44:39;;;;;;;;;;;25.50;55.10;;;;;;5080699;28;19984;-63
2021/07/25 08:47:25;;;;;;;;;;;25.40;55.00;;;;;;5083328;28;20339;-67
2021/07/25 08:49:53;;;;;;;;;;;25.50;55.10;;;;;;5073225;28;20027;-67
2021/07/25 08:52:19;;;;;;;;;;;25.50;55.10;;;;;;5084359;28;19961;-63
2021/07/25 08:54:45;;;;;;;;;;;25.50;55.10;;;;;;5085789;28;20743;-62
2021/07/25 08:57:12;;;;;;;;;;;25.50;55.00;;;;;;5073507;28;19939;-68
2021/07/25 08:59:40;;;;;;;;;;;25.50;55.00;;;;;;5072736;28;19915;-65
2021/07/25 09:02:07;;;;;;;;;;;25.50;54.90;;;;;;5085723;28;19926;-67
2021/07/25 09:04:33;;;;;;;;;;;25.50;54.90;;;;;;5083913;28;20014;-67
2021/07/25 09:07:02;;;;;;;;;;;25.50;54.90;;;;;;5085981;28;20761;-68
2021/07/25 09:09:27;;;;;;;;;;;25.50;54.80;;;;;;5078891;28;19916;-67
2021/07/25 09:11:53;;;;;;;;;;;25.40;54.80;;;;;;5085319;28;19912;-64
2021/07/25 09:14:18;;;;;;;;;;;25.50;54.80;;;;;;5080343;28;19922;-62
2021/07/25 09:16:44;;;;;;;;;;;25.50;54.80;;;;;;5075377;28;19922;-65
2021/07/25 09:19:10;;;;;;;;;;;25.50;54.80;;;;;;5064327;28;19951;-63
2021/07/25 09:21:37;;;;;;;;;;;25.50;54.80;;;;;;5081720;28;20297;-64
2021/07/25 09:24:18;;;;;;;;;;;25.50;54.80;;;;;;5063695;28;19919;-65
2021/07/25 09:26:50;;;;;;;;;;;25.50;54.80;;;;;;5072720;28;19911;-67
2021/07/25 09:29:17;;;;;;;;;;;25.50;54.90;;;;;;5084113;28;19943;-64
2021/07/25 09:31:42;;;;;;;;;;;25.50;55.00;;;;;;5080407;28;19920;-67
2021/07/25 09:34:08;;;;;;;;;;;25.50;55.00;;;;;;5071100;28;19922;-65
2021/07/25 09:36:33;;;;;;;;;;;25.50;55.10;;;;;;5078712;28;19916;-65
2021/07/25 09:38:59;;;;;;;;;;;25.50;55.20;;;;;;5081392;28;20453;-65
2021/07/25 09:41:26;;;;;;;;;;;25.50;55.20;;;;;;5083396;28;19954;-66
2021/07/25 09:44:03;;;;;;;;;;;25.50;55.20;;;;;;5086192;28;20248;-64
2021/07/25 09:46:40;;;;;;;;;;;25.50;55.10;;;;;;5065719;28;19938;-66
2021/07/25 09:49:05;;;;;;;;;;;25.50;55.20;;;;;;5083593;28;19918;-65
2021/07/25 09:51:31;;;;;;;;;;;25.50;55.10;;;;;;5084690;28;20009;-64
2021/07/25 09:54:00;;;;;;;;;;;25.50;55.60;;;;;;5089012;28;20331;-68
2021/07/25 09:56:26;;;;;;;;;;;25.50;55.10;;;;;;5065188;28;19920;-64
2021/07/25 09:58:54;;;;;;;;;;;25.50;55.10;;;;;;5085539;28;20638;-62
2021/07/25 10:01:38;;;;;;;;;;;25.50;55.00;;;;;;5084249;28;20303;-65
2021/07/25 10:04:14;;;;;;;;;;;25.50;55.10;;;;;;5082186;28;19960;-65
2021/07/25 10:06:41;;;;;;;;;;;25.50;55.00;;;;;;5084536;28;19944;-62
2021/07/25 10:09:10;;;;;;;;;;;25.50;55.00;;;;;;5064571;28;19919;-64
2021/07/25 10:11:36;;;;;;;;;;;25.50;55.00;;;;;;5083694;28;20007;-62
2021/07/25 10:14:02;;;;;;;;;;;25.50;54.90;;;;;;5067028;28;20014;-63
2021/07/25 10:16:27;;;;;;;;;;;25.50;54.90;;;;;;5083293;28;20020;-67
2021/07/25 10:18:53;;;;;;;;;;;25.50;54.90;;;;;;5085649;28;19912;-65
2021/07/25 10:21:19;;;;;;;;;;;25.50;54.80;;;;;;5084693;28;19953;-65
2021/07/25 10:23:52;;;;;;;;;;;25.50;54.70;;;;;;5083610;28;19915;-66
2021/07/25 10:26:18;;;;;;;;;;;25.50;54.60;;;;;;5084165;28;20389;-63
2021/07/25 10:28:45;;;;;;;;;;;25.60;54.70;;;;;;5083836;28;19915;-65
2021/07/25 10:31:11;;;;;;;;;;;25.50;54.40;;;;;;5079466;28;19981;-65
2021/07/25 10:33:38;;;;;;;;;;;25.50;54.40;;;;;;5082585;28;19951;-65
2021/07/25 10:36:04;;;;;;;;;;;25.60;54.50;;;;;;5082489;28;20386;-63
2021/07/25 10:38:29;;;;;;;;;;;25.60;54.50;;;;;;5060840;28;19954;-65
2021/07/25 10:40:56;;;;;;;;;;;25.60;54.50;;;;;;5078111;28;19934;-65
2021/07/25 10:43:25;;;;;;;;;;;25.60;54.50;;;;;;5081106;28;19916;-62
2021/07/25 10:46:09;;;;;;;;;;;25.60;54.50;;;;;;5076667;28;20074;-62
2021/07/25 10:48:34;;;;;;;;;;;25.60;54.60;;;;;;5075266;28;19912;-64
2021/07/25 10:51:09;;;;;;;;;;;25.60;54.60;;;;;;5064513;28;20231;-65
2021/07/25 10:53:35;;;;;;;;;;;25.60;54.60;;;;;;5062403;28;19916;-62
2021/07/25 10:56:00;;;;;;;;;;;25.60;54.60;;;;;;5085884;28;20537;-68
2021/07/25 10:58:27;;;;;;;;;;;25.60;54.70;;;;;;5078692;28;20023;-66
2021/07/25 11:00:53;;;;;;;;;;;25.60;54.70;;;;;;5078152;28;19926;-64
2021/07/25 11:03:38;;;;;;;;;;;25.60;54.70;;;;;;5077875;28;19920;-65
2021/07/25 11:06:15;;;;;;;;;;;25.60;54.70;;;;;;5058118;28;19927;-63
2021/07/25 11:08:44;;;;;;;;;;;25.60;54.70;;;;;;5071077;28;19950;-66
2021/07/25 11:11:26;;;;;;;;;;;25.60;54.70;;;;;;5079436;28;19988;-67
2021/07/25 11:13:52;;;;;;;;;;;25.60;54.70;;;;;;5072158;28;19912;-67
2021/07/25 11:16:47;;;;;;;;;;;25.60;54.60;;;;;;5078104;28;19920;-64
2021/07/25 11:19:15;;;;;;;;;;;25.60;54.70;;;;;;5055916;28;19911;-63
2021/07/25 11:21:43;;;;;;;;;;;25.70;54.70;;;;;;5076735;28;20471;-64
2021/07/25 11:24:18;;;;;;;;;;;25.70;54.60;;;;;;5072711;28;20319;-63
2021/07/25 11:26:44;;;;;;;;;;;25.70;54.70;;;;;;5064275;28;20018;-67
2021/07/25 11:29:10;;;;;;;;;;;25.70;54.60;;;;;;5083465;28;19912;-63
2021/07/25 11:31:37;;;;;;;;;;;25.70;54.60;;;;;;5081174;28;19939;-64
2021/07/25 11:34:02;;;;;;;;;;;25.70;54.70;;;;;;5076842;28;20026;-65
2021/07/25 11:36:28;;;;;;;;;;;25.70;54.50;;;;;;5084437;28;19920;-65
2021/07/25 11:38:55;;;;;;;;;;;25.70;55.00;;;;;;5083446;28;19938;-62
2021/07/25 11:41:22;;;;;;;;;;;25.70;54.40;;;;;;5081860;28;19912;-67
2021/07/25 11:43:55;;;;;;;;;;;25.70;54.50;;;;;;5083579;28;20413;-66
2021/07/25 11:46:22;;;;;;;;;;;25.70;54.40;;;;;;5081064;28;19912;-67
2021/07/25 11:48:47;;;;;;;;;;;25.70;54.40;;;;;;5084664;28;19920;-69
2021/07/25 11:51:20;;;;;;;;;;;25.70;54.40;;;;;;5081772;28;19968;-65
2021/07/25 11:53:46;;;;;;;;;;;25.70;54.30;;;;;;5078993;28;19912;-63
2021/07/25 11:56:12;;;;;;;;;;;25.70;54.30;;;;;;5073316;28;19927;-68
2021/07/25 11:58:37;;;;;;;;;;;25.70;54.20;;;;;;5084589;28;19916;-65
2021/07/25 12:01:09;;;;;;;;;;;25.70;54.20;;;;;;5080522;28;19927;-64
2021/07/25 12:03:35;;;;;;;;;;;25.70;54.20;;;;;;5087681;28;19916;-66
2021/07/25 12:06:10;;;;;;;;;;;25.70;54.20;;;;;;5086751;28;19969;-64
2021/07/25 12:08:35;;;;;;;;;;;25.70;54.20;;;;;;5085991;28;19912;-65
2021/07/25 12:11:04;;;;;;;;;;;25.70;54.20;;;;;;5086028;28;20422;-66
2021/07/25 12:13:29;;;;;;;;;;;25.70;54.10;;;;;;5084777;28;19961;-63
2021/07/25 12:16:04;;;;;;;;;;;25.70;54.10;;;;;;5081516;28;20355;-64
2021/07/25 12:18:30;;;;;;;;;;;25.70;54.20;;;;;;5088358;28;19989;-65
2021/07/25 12:20:55;;;;;;;;;;;25.70;54.30;;;;;;5088741;28;19916;-65
2021/07/25 12:23:35;;;;;;;;;;;25.70;54.40;;;;;;5086726;28;20686;-65
2021/07/25 12:26:00;;;;;;;;;;;25.70;54.50;;;;;;5086020;28;19926;-65
2021/07/25 12:28:27;;;;;;;;;;;25.70;54.40;;;;;;5084475;28;19920;-64
2021/07/25 12:30:57;;;;;;;;;;;25.80;54.60;;;;;;5088108;28;19915;-64
2021/07/25 12:33:30;;;;;;;;;;;25.70;54.50;;;;;;5077753;28;20368;-64
2021/07/25 12:35:55;;;;;;;;;;;25.70;54.60;;;;;;5070489;28;19923;-68
2021/07/25 12:38:22;;;;;;;;;;;25.70;54.60;;;;;;5053472;28;20023;-66
2021/07/25 12:40:52;;;;;;;;;;;25.80;54.80;;;;;;5065221;28;19916;-65
2021/07/25 12:43:18;;;;;;;;;;;25.80;55.00;;;;;;5054136;28;20007;-68
2021/07/25 12:45:44;;;;;;;;;;;25.80;55.00;;;;;;5084434;28;19985;-65
2021/07/25 12:48:24;;;;;;;;;;;25.80;55.20;;;;;;5069780;28;20051;-64
2021/07/25 12:51:00;;;;;;;;;;;25.80;55.00;;;;;;5074171;28;19912;-69
2021/07/25 12:53:29;;;;;;;;;;;25.80;55.20;;;;;;5080277;28;19976;-66
2021/07/25 12:55:55;;;;;;;;;;;25.80;55.50;;;;;;5078687;28;19920;-65
2021/07/25 12:58:22;;;;;;;;;;;25.80;55.30;;;;;;5086594;28;20384;-65
2021/07/25 13:06:07;;;;;;;;;;;25.90;55.40;;;;;;5084267;28;20005;-62
2021/07/25 13:08:33;;;;;;;;;;;25.80;55.10;;;;;;5086090;28;20721;-66
2021/07/25 13:10:59;;;;;;;;;;;25.90;55.10;;;;;;5079531;28;19920;-67
2021/07/25 13:13:24;;;;;;;;;;;25.90;55.40;;;;;;5085387;28;19927;-66
2021/07/25 13:15:50;;;;;;;;;;;25.90;55.30;;;;;;5081653;28;19923;-68
2021/07/25 13:18:16;;;;;;;;;;;25.90;56.10;;;;;;5089972;28;19918;-65
2021/07/25 13:20:42;;;;;;;;;;;25.90;56.40;;;;;;5080602;28;19908;-63
2021/07/25 13:23:07;;;;;;;;;;;25.90;56.10;;;;;;5085338;28;19918;-63
2021/07/25 13:25:33;;;;;;;;;;;25.90;56.10;;;;;;5078912;28;20012;-67
2021/07/25 13:27:58;;;;;;;;;;;26.00;56.10;;;;;;5077497;28;19916;-64
2021/07/25 13:30:24;;;;;;;;;;;26.00;56.00;;;;;;5078289;28;20387;-63
2021/07/25 13:32:49;;;;;;;;;;;26.00;56.00;;;;;;5081504;28;19916;-64
2021/07/25 13:35:15;;;;;;;;;;;26.00;55.90;;;;;;5082414;28;20030;-64
2021/07/25 13:37:40;;;;;;;;;;;26.10;56.00;;;;;;5078324;28;20719;-67
2021/07/25 13:40:06;;;;;;;;;;;26.10;56.00;;;;;;5087092;28;19970;-63
2021/07/25 13:42:33;;;;;;;;;;;26.10;55.90;;;;;;5087108;28;20390;-64
2021/07/25 13:45:01;;;;;;;;;;;26.10;55.80;;;;;;5065636;28;19916;-67
2021/07/25 13:47:27;;;;;;;;;;;26.10;55.80;;;;;;5084434;28;19912;-63
2021/07/25 13:49:53;;;;;;;;;;;26.20;55.80;;;;;;5081290;28;20255;-67
2021/07/25 13:52:18;;;;;;;;;;;26.20;55.70;;;;;;5084577;28;20323;-66
2021/07/25 13:54:44;;;;;;;;;;;26.20;55.70;;;;;;5080759;28;20006;-67
2021/07/25 13:57:09;;;;;;;;;;;26.20;55.70;;;;;;5078563;28;20376;-65
2021/07/25 13:59:35;;;;;;;;;;;26.20;55.60;;;;;;5082953;28;19918;-65
2021/07/25 14:02:00;;;;;;;;;;;26.20;55.60;;;;;;5083421;28;19935;-67
2021/07/25 14:04:26;;;;;;;;;;;26.20;55.40;;;;;;5079617;28;20018;-64
2021/07/25 14:06:51;;;;;;;;;;;26.30;55.60;;;;;;5071871;28;20014;-66
2021/07/25 14:09:17;;;;;;;;;;;26.20;55.70;;;;;;5085282;28;19954;-65
2021/07/25 14:11:43;;;;;;;;;;;26.30;55.50;;;;;;5075975;28;20765;-64
2021/07/25 14:14:08;;;;;;;;;;;26.30;55.40;;;;;;5077867;28;19919;-65
2021/07/25 14:16:34;;;;;;;;;;;26.30;55.90;;;;;;5076112;28;20324;-65
2021/07/25 14:18:59;;;;;;;;;;;26.40;55.80;;;;;;5079722;28;19993;-66
2021/07/25 14:21:25;;;;;;;;;;;26.40;55.80;;;;;;5083965;28;20525;-64
2021/07/25 14:23:50;;;;;;;;;;;26.40;55.70;;;;;;5085046;28;19919;-66